Terminal Aerodrome Forecast
Issued by NWS

Home | Current Version | Previous Version | Text Only | Print | Product List | Glossary Off
Versions: 1 2 3 4 5 6 7 8 9 10 11 12 13 14 15 16 17

659
FTUS43 KICT 240502 AAC
TAFSLN
TAF AMD
KSLN 240502Z 2405/2424 32022G26KT P6SM OVC012
     FM240900 31017KT P6SM OVC015
     FM241500 31022G26KT P6SM SCT015 OVC035=

USA.gov is the U.S. government's official web portal to all federal, state and local government web resources and services.